Time;durP1;ratioP1;P1;durP2;ratioP2;P2;SDS_P1;SDS_P2;PMS_P1;PMS_P2;Temp;Humidity;BMP_temperature;BMP_pressure;BME280_temperature;BME280_humidity;BME280_pressure;Samples;Min_cycle;Max_cycle;Signal;HPM_P1;HPM_P2
2021/11/23 00:01:10;;;;;;;9.30;5.43;;;;;;;4.79;79.96;100793.29;1344815;92;21275;-90
2021/11/23 00:03:36;;;;;;;13.13;7.73;;;;;;;4.77;80.29;100796.48;1342404;90;21275;-89
2021/11/23 00:06:03;;;;;;;9.80;6.67;;;;;;;4.76;80.21;100794.33;1338175;92;21224;-89
2021/11/23 00:08:33;;;;;;;11.13;6.87;;;;;;;4.74;80.19;100803.59;1339242;93;21328;-89
2021/11/23 00:11:00;;;;;;;11.05;6.20;;;;;;;4.69;80.36;100797.84;1339419;92;21439;-88
2021/11/23 00:13:27;;;;;;;9.93;7.27;;;;;;;4.65;80.54;100802.89;1333460;93;21325;-89
2021/11/23 00:15:53;;;;;;;8.73;6.83;;;;;;;4.63;80.43;100806.55;1338767;91;21282;-87
2021/11/23 00:18:19;;;;;;;9.73;6.17;;;;;;;4.62;80.56;100810.13;1336829;93;21401;-87
2021/11/23 00:20:48;;;;;;;12.43;7.23;;;;;;;4.61;80.61;100813.70;1334291;92;21379;-88
2021/11/23 00:23:15;;;;;;;11.63;7.53;;;;;;;4.62;80.45;100806.20;1333727;93;21246;-86
2021/11/23 00:25:42;;;;;;;10.47;7.40;;;;;;;4.57;80.52;100815.66;1333788;93;21311;-88
2021/11/23 00:28:10;;;;;;;10.80;6.87;;;;;;;4.60;80.58;100822.01;1335297;92;21489;-87
2021/11/23 00:30:38;;;;;;;10.77;7.27;;;;;;;4.60;80.61;100822.48;1334520;92;21312;-87
2021/11/23 00:33:05;;;;;;;13.83;8.60;;;;;;;4.56;80.39;100820.54;1335016;93;21372;-88
2021/11/23 00:35:32;;;;;;;11.93;8.40;;;;;;;4.56;80.39;100820.54;1338717;92;21268;-88
2021/11/23 00:37:59;;;;;;;12.53;8.33;;;;;;;4.56;80.39;100834.95;1339531;91;21313;-90
2021/11/23 00:40:26;;;;;;;13.07;7.67;;;;;;;4.57;80.21;100835.31;1339241;91;21334;-88
2021/11/23 00:42:54;;;;;;;11.13;7.33;;;;;;;4.58;80.23;100841.42;1337716;93;21247;-88
2021/11/23 00:45:21;;;;;;;12.00;8.77;;;;;;;4.58;80.14;100841.42;1336013;92;21276;-87
2021/11/23 00:47:47;;;;;;;13.33;9.00;;;;;;;4.59;80.03;100850.96;1335157;92;21290;-87
2021/11/23 00:50:15;;;;;;;11.40;7.90;;;;;;;4.60;80.03;100848.70;1336663;92;21387;-89
2021/11/23 00:52:42;;;;;;;12.53;8.90;;;;;;;4.61;79.99;100853.02;1329908;93;21512;-87
2021/11/23 00:55:14;;;;;;;13.63;9.90;;;;;;;4.62;79.62;100848.14;1336152;92;21261;-88
2021/11/23 00:57:42;;;;;;;15.00;8.73;;;;;;;4.66;79.71;100854.41;1346118;91;21376;-88
2021/11/23 01:00:12;;;;;;;12.33;8.47;;;;;;;4.68;79.55;100846.43;1352485;91;21531;-88
2021/11/23 01:02:38;;;;;;;12.30;8.15;;;;;;;4.73;79.36;100850.91;1349765;92;21408;-87
2021/11/23 01:05:05;;;;;;;12.87;9.00;;;;;;;4.73;78.92;100846.98;1349314;92;21409;-87
2021/11/23 01:07:32;;;;;;;11.07;8.20;;;;;;;4.76;79.02;100850.71;1347578;91;21365;-88
2021/11/23 01:10:00;;;;;;;12.07;7.63;;;;;;;4.81;79.03;100848.63;1350348;92;21169;-87
2021/11/23 01:12:33;;;;;;;13.83;9.30;;;;;;;4.81;78.97;100849.95;1347281;93;21214;-87
2021/11/23 01:14:59;;;;;;;13.50;9.07;;;;;;;4.84;78.71;100856.78;1349163;91;21356;-86
2021/11/23 01:17:26;;;;;;;17.70;9.27;;;;;;;4.82;78.16;100846.38;1360500;92;21620;-88
2021/11/23 01:19:52;;;;;;;14.93;9.33;;;;;;;4.84;78.08;100848.44;1348162;93;21379;-88
2021/11/23 01:22:18;;;;;;;14.90;8.97;;;;;;;4.90;78.33;100853.75;1334112;92;22414;-87
2021/11/23 01:24:46;;;;;;;11.73;7.23;;;;;;;4.90;78.13;100851.96;1349344;91;22132;-87
2021/11/23 01:27:12;;;;;;;14.70;9.07;;;;;;;4.91;77.91;100854.11;1335379;90;21304;-89
2021/11/23 01:29:40;;;;;;;12.03;8.17;;;;;;;4.89;77.85;100854.67;1347745;91;21420;-88
2021/11/23 01:32:08;;;;;;;11.83;8.40;;;;;;;4.91;77.71;100854.95;1347653;91;22161;-89
2021/11/23 01:34:34;;;;;;;11.83;8.33;;;;;;;4.94;77.60;100857.36;1348051;93;21334;-89
2021/11/23 01:37:02;;;;;;;13.60;9.07;;;;;;;4.93;77.62;100855.69;1349816;91;21369;-88
2021/11/23 01:39:29;;;;;;;12.17;9.30;;;;;;;4.93;77.94;100858.31;1331514;92;21330;-88
2021/11/23 01:41:56;;;;;;;11.40;8.27;;;;;;;4.93;77.79;100857.00;1350549;90;21449;-87
2021/11/23 01:44:23;;;;;;;11.53;8.33;;;;;;;4.96;77.95;100865.98;1347620;91;21238;-88
2021/11/23 01:46:50;;;;;;;12.87;8.73;;;;;;;4.93;77.87;100860.94;1351390;91;21312;-89
2021/11/23 01:49:17;;;;;;;12.40;8.83;;;;;;;4.91;77.83;100861.50;1349929;90;21369;-89
2021/11/23 01:51:45;;;;;;;11.10;7.67;;;;;;;4.93;77.90;100864.04;1349260;92;21486;-88
2021/11/23 01:54:12;;;;;;;13.27;8.57;;;;;;;4.92;77.64;100864.95;1336483;94;21390;-89
2021/11/23 01:56:39;;;;;;;9.83;7.30;;;;;;;4.95;77.57;100868.72;1351415;91;21741;-88
2021/11/23 01:59:05;;;;;;;12.90;7.90;;;;;;;4.92;77.40;100865.83;1354382;89;21326;-86
2021/11/23 02:01:31;;;;;;;11.70;8.77;;;;;;;4.94;77.63;100874.41;1351395;93;21357;-87
2021/11/23 02:03:59;;;;;;;14.70;9.07;;;;;;;4.93;77.51;100871.43;1351406;91;22072;-88
2021/11/23 02:06:26;;;;;;;14.70;7.97;;;;;;;4.91;77.04;100871.99;1350622;90;21475;-88
2021/11/23 02:08:53;;;;;;;16.03;10.67;;;;;;;4.95;76.91;100882.67;1352364;90;21267;-90
2021/11/23 02:11:21;;;;;;;13.83;9.23;;;;;;;4.96;77.11;100874.33;1352011;91;21298;-89
2021/11/23 02:13:49;;;;;;;12.73;8.73;;;;;;;4.97;77.15;100879.45;1354050;92;21238;-89
2021/11/23 02:16:16;;;;;;;14.20;8.37;;;;;;;5.01;77.04;100881.91;1350237;91;21455;-87
2021/11/23 02:18:42;;;;;;;12.30;8.80;;;;;;;4.98;77.09;100892.96;1350215;93;21223;-87
2021/11/23 02:21:09;;;;;;;14.57;9.67;;;;;;;4.95;77.34;100888.39;1347916;91;21563;-87
2021/11/23 02:23:36;;;;;;;12.17;8.60;;;;;;;4.87;77.48;100896.75;1352507;90;21415;-87
2021/11/23 02:26:04;;;;;;;14.73;9.27;;;;;;;4.85;77.72;100899.10;1337811;93;21407;-87
2021/11/23 02:28:32;;;;;;;13.40;9.50;;;;;;;4.81;77.97;100901.09;1353822;91;21365;-87
2021/11/23 02:31:01;;;;;;;12.47;8.60;;;;;;;4.71;78.42;100905.23;1351582;91;22619;-89
2021/11/23 02:33:29;;;;;;;13.60;9.20;;;;;;;4.62;79.00;100909.28;1352252;91;21387;-88
2021/11/23 02:36:01;;;;;;;17.93;9.93;;;;;;;4.61;79.19;100908.08;1350569;92;21319;-87
2021/11/23 02:38:29;;;;;;;16.00;11.00;;;;;;;4.58;79.36;100913.52;1353923;90;21282;-87
2021/11/23 02:40:57;;;;;;;15.53;11.17;;;;;;;4.47;79.67;100896.67;1349791;91;21187;-86
2021/11/23 02:43:25;;;;;;;15.53;10.17;;;;;;;4.41;80.19;100907.55;1339642;94;21371;-87
2021/11/23 02:45:52;;;;;;;16.27;10.80;;;;;;;4.41;80.19;100907.55;1353617;93;21283;-87
2021/11/23 02:48:27;;;;;;;20.37;10.97;;;;;;;4.44;80.41;100907.36;1355144;91;21304;-90
2021/11/23 02:53:49;;;;;;;16.80;11.33;;;;;;;4.34;81.15;100916.72;1354071;91;21326;-87
2021/11/23 02:56:17;;;;;;;14.50;10.67;;;;;;;4.31;81.45;100923.46;1349973;93;21342;-89
2021/11/23 02:58:47;;;;;;;19.73;11.67;;;;;;;4.34;81.11;100920.65;1349814;91;21370;-88
2021/11/23 03:01:19;;;;;;;17.33;11.67;;;;;;;4.29;81.34;100913.56;1352935;91;22161;-88
2021/11/23 03:03:47;;;;;;;17.53;11.80;;;;;;;4.27;81.42;100918.05;1351506;91;22308;-87
2021/11/23 03:06:16;;;;;;;15.63;10.13;;;;;;;4.20;81.34;100919.35;1351615;91;21245;-86
2021/11/23 03:08:42;;;;;;;14.17;9.60;;;;;;;4.20;81.34;100919.35;1352237;90;21438;-88
2021/11/23 03:11:09;;;;;;;15.40;10.23;;;;;;;4.22;81.32;100931.90;1341688;93;21945;-87
2021/11/23 03:13:35;;;;;;;16.40;9.97;;;;;;;4.18;81.32;100931.72;1338611;92;22079;-84
2021/11/23 03:16:02;;;;;;;14.37;9.37;;;;;;;4.07;80.97;100924.04;1348361;91;21489;-83
2021/11/23 03:18:28;;;;;;;17.90;12.13;;;;;;;4.07;80.97;100924.04;1349628;90;21488;-84
2021/11/23 03:20:55;;;;;;;17.83;8.77;;;;;;;4.10;81.05;100932.66;1352585;91;21363;-84
2021/11/23 03:23:23;;;;;;;13.23;9.20;;;;;;;4.01;81.39;100943.23;1343468;92;21357;-85
2021/11/23 03:25:50;;;;;;;16.30;8.93;;;;;;;3.99;81.29;100940.69;1348338;89;21447;-84
2021/11/23 03:28:16;;;;;;;23.00;11.07;;;;;;;3.93;81.30;100930.58;1346632;90;22191;-85
2021/11/23 03:30:43;;;;;;;18.10;11.40;;;;;;;3.93;81.16;100941.06;1350068;91;21247;-85
2021/11/23 03:33:10;;;;;;;20.87;10.70;;;;;;;3.93;81.16;100941.06;1349331;92;21405;-84
2021/11/23 03:35:40;;;;;;;12.90;9.60;;;;;;;3.87;81.19;100947.98;1349452;91;22246;-85
2021/11/23 03:38:09;;;;;;;17.47;10.10;;;;;;;3.86;81.02;100948.92;1340903;92;22055;-85
2021/11/23 03:40:37;;;;;;;15.40;10.43;;;;;;;3.84;81.03;100953.41;1352983;91;22120;-84
2021/11/23 03:43:05;;;;;;;14.70;10.43;;;;;;;3.72;81.28;100965.92;1347728;89;22270;-85
2021/11/23 03:45:35;;;;;;;16.60;11.55;;;;;;;3.72;81.28;100965.92;1351161;91;21371;-85
2021/11/23 03:48:04;;;;;;;15.23;10.53;;;;;;;3.70;81.39;100963.84;1352952;91;21333;-86
2021/11/23 03:50:32;;;;;;;12.90;8.67;;;;;;;3.58;81.74;100966.72;1350509;92;22020;-86
2021/11/23 03:52:59;;;;;;;17.10;10.07;;;;;;;3.58;81.74;100966.72;1351875;91;21216;-85
2021/11/23 03:55:33;;;;;;;15.13;9.33;;;;;;;3.57;81.74;100969.81;1349523;91;22147;-88
2021/11/23 03:58:01;;;;;;;12.97;9.40;;;;;;;3.57;81.74;100967.19;1352488;91;23585;-87
2021/11/23 04:00:27;;;;;;;12.43;9.13;;;;;;;3.55;81.57;100972.14;1349353;90;22157;-87
2021/11/23 04:03:00;;;;;;;12.40;7.17;;;;;;;3.52;81.49;100974.94;1349461;91;22099;-87
2021/11/23 04:05:26;;;;;;;12.60;9.23;;;;;;;3.49;81.23;100975.11;1350895;90;21994;-86
2021/11/23 04:07:54;;;;;;;16.07;10.80;;;;;;;3.48;81.08;100989.98;1352854;91;22106;-86
2021/11/23 04:10:22;;;;;;;18.00;10.73;;;;;;;3.54;81.05;100992.67;1344313;90;22163;-87
2021/11/23 04:12:51;;;;;;;13.77;7.13;;;;;;;3.50;81.02;100997.25;1338882;92;22030;-86
2021/11/23 04:15:18;;;;;;;14.37;9.60;;;;;;;3.41;81.17;101003.49;1348171;91;22098;-86
2021/11/23 04:17:45;;;;;;;17.90;11.57;;;;;;;3.36;81.24;101006.36;1340529;92;22180;-86
2021/11/23 04:20:17;;;;;;;14.40;10.40;;;;;;;3.36;81.26;101007.66;1351292;91;22144;-87
2021/11/23 04:22:43;;;;;;;14.27;9.83;;;;;;;3.37;81.08;101008.91;1350054;91;22095;-87
2021/11/23 04:25:10;;;;;;;15.73;10.40;;;;;;;3.35;81.01;101012.53;1330330;92;22124;-87
2021/11/23 04:27:38;;;;;;;14.77;10.07;;;;;;;3.33;80.92;101009.98;1351864;91;21998;-87
2021/11/23 04:30:08;;;;;;;15.40;9.83;;;;;;;3.30;80.89;101013.25;1351847;91;21974;-88
2021/11/23 04:32:34;;;;;;;17.67;10.53;;;;;;;3.27;80.81;101012.12;1353238;89;23069;-87
2021/11/23 04:35:00;;;;;;;14.07;10.27;;;;;;;3.20;80.78;101019.48;1349104;91;22072;-87
2021/11/23 04:37:29;;;;;;;14.73;10.30;;;;;;;3.15;80.63;101015.80;1349270;90;22331;-87
2021/11/23 04:39:55;;;;;;;17.00;9.53;;;;;;;3.12;80.64;101021.67;1347590;93;21923;-87
2021/11/23 04:42:21;;;;;;;14.50;8.20;;;;;;;3.01;80.41;101022.25;1348092;89;22215;-87
2021/11/23 04:44:48;;;;;;;19.20;10.00;;;;;;;3.01;80.41;101022.25;1349668;90;22039;-87
2021/11/23 04:47:14;;;;;;;16.00;10.37;;;;;;;3.04;80.30;101029.94;1350208;91;21975;-89
2021/11/23 04:49:42;;;;;;;14.93;8.97;;;;;;;3.05;80.19;101034.25;1349062;91;22124;-91
2021/11/23 04:52:09;;;;;;;15.20;9.90;;;;;;;3.03;79.99;101036.10;1352030;90;21990;-90
2021/11/23 04:54:41;;;;;;;14.80;9.33;;;;;;;3.01;79.85;101034.02;1352966;90;22257;-90
2021/11/23 04:57:07;;;;;;;12.67;8.00;;;;;;;3.02;79.74;101042.27;1354459;89;22218;-90
2021/11/23 04:59:34;;;;;;;17.90;9.77;;;;;;;2.92;79.81;101038.45;1334960;92;22262;-89
2021/11/23 05:02:02;;;;;;;14.87;7.70;;;;;;;2.92;79.81;101046.30;1336260;92;22012;-91
2021/11/23 05:04:28;;;;;;;16.40;9.83;;;;;;;2.91;79.65;101044.63;1335592;92;22034;-90
2021/11/23 05:06:55;;;;;;;15.33;10.33;;;;;;;2.95;79.63;101055.28;1334627;93;22951;-91
2021/11/23 05:09:22;;;;;;;13.90;8.80;;;;;;;2.91;79.75;101055.92;1319080;95;22171;-91
2021/11/23 05:11:48;;;;;;;15.13;10.43;;;;;;;2.90;79.64;101055.52;1334807;93;22101;-89
2021/11/23 05:14:16;;;;;;;20.70;10.70;;;;;;;2.90;79.71;101051.59;1330921;92;22043;-89
2021/11/23 05:16:42;;;;;;;14.37;9.53;;;;;;;2.90;79.71;101051.59;1335266;93;22164;-89
2021/11/23 05:19:09;;;;;;;19.73;10.70;;;;;;;2.86;79.43;101050.09;1336423;92;21990;-91
2021/11/23 05:21:36;;;;;;;15.60;10.10;;;;;;;2.89;79.42;101073.92;1333928;91;22224;-86
2021/11/23 05:24:02;;;;;;;15.60;9.07;;;;;;;2.81;79.86;101073.48;1333797;92;22102;-86
2021/11/23 05:26:29;;;;;;;14.00;9.57;;;;;;;2.81;79.86;101073.48;1332066;92;22263;-85
2021/11/23 05:28:55;;;;;;;15.23;9.33;;;;;;;2.78;80.46;101077.10;1331549;93;22101;-87
2021/11/23 05:31:21;;;;;;;18.03;9.10;;;;;;;2.74;80.30;101069.52;1326427;93;22156;-87
2021/11/23 05:33:49;;;;;;;17.40;11.10;;;;;;;2.83;80.33;101080.32;1331510;92;21755;-88
2021/11/23 05:36:15;;;;;;;17.67;11.73;;;;;;;2.81;80.45;101073.48;1333793;92;22139;-87
2021/11/23 05:38:41;;;;;;;23.10;10.83;;;;;;;2.81;80.45;101073.48;1332171;92;22117;-86
2021/11/23 05:41:07;;;;;;;13.27;8.60;;;;;;;2.79;80.22;101085.78;1333184;93;21860;-86
2021/11/23 05:43:34;;;;;;;20.40;10.53;;;;;;;2.73;80.64;101071.73;1331429;93;21776;-86
2021/11/23 05:46:00;;;;;;;18.23;11.67;;;;;;;2.73;80.64;101071.73;1333653;93;22155;-87
2021/11/23 05:48:26;;;;;;;17.50;8.63;;;;;;;2.74;80.32;101076.06;1332359;93;21942;-87
2021/11/23 05:50:52;;;;;;;16.70;11.07;;;;;;;2.70;80.33;101081.89;1331874;93;21957;-86
2021/11/23 05:53:19;;;;;;;15.77;9.57;;;;;;;2.70;80.33;101081.89;1330985;93;21884;-87
2021/11/23 05:55:45;;;;;;;16.63;10.03;;;;;;;2.61;79.89;101070.15;1330203;93;21942;-90
2021/11/23 05:58:12;;;;;;;18.23;10.13;;;;;;;2.66;79.76;101082.52;1333206;92;21830;-89
2021/11/23 06:00:39;;;;;;;14.40;9.13;;;;;;;2.62;79.54;101092.77;1344843;92;21831;-88
2021/11/23 06:03:05;;;;;;;14.37;9.50;;;;;;;2.62;79.54;101092.77;1349687;92;21776;-88
2021/11/23 06:05:32;;;;;;;21.27;10.57;;;;;;;2.68;79.51;101105.52;1352619;91;21775;-90
2021/11/23 06:08:01;;;;;;;17.50;9.90;;;;;;;2.68;79.51;101105.52;1350353;92;21694;-89
2021/11/23 06:10:27;;;;;;;15.57;9.17;;;;;;;2.67;79.14;101107.72;1351824;92;21845;-89
2021/11/23 06:12:56;;;;;;;17.33;8.63;;;;;;;2.66;79.14;101103.43;1348444;92;22115;-88
2021/11/23 06:15:23;;;;;;;14.17;8.73;;;;;;;2.66;79.14;101103.43;1347243;90;21728;-90
2021/11/23 06:17:58;;;;;;;14.67;10.40;;;;;;;2.73;79.02;101117.48;1348324;92;21861;-90
2021/11/23 06:20:18;;;;;;;13.60;8.77;;;;;;;2.71;79.07;101114.50;1347990;92;22107;-89
2021/11/23 06:22:48;;;;;;;21.70;8.90;;;;;;;2.68;79.08;101112.05;1347777;92;21748;-89
2021/11/23 06:25:17;;;;;;;16.63;9.17;;;;;;;2.73;78.41;101121.41;1347437;91;22022;-87
2021/11/23 06:27:43;;;;;;;15.63;7.07;;;;;;;2.78;78.66;101122.02;1327764;93;21726;-89
2021/11/23 06:30:12;;;;;;;11.67;8.13;;;;;;;2.76;78.44;101123.85;1347285;91;22108;-88
2021/11/23 06:32:38;;;;;;;13.37;8.40;;;;;;;2.76;78.14;101118.16;1347821;91;21968;-87
2021/11/23 06:35:08;;;;;;;13.17;8.73;;;;;;;2.87;78.26;101139.83;1347157;91;22011;-89
2021/11/23 06:37:42;;;;;;;15.20;10.53;;;;;;;2.87;78.26;101139.83;1346895;91;22699;-87
2021/11/23 06:40:10;;;;;;;12.83;9.90;;;;;;;2.92;77.41;101131.28;1349253;91;22144;-88
2021/11/23 06:42:36;;;;;;;12.60;7.73;;;;;;;2.92;77.41;101131.28;1345356;92;22051;-87
2021/11/23 06:45:05;;;;;;;14.73;9.27;;;;;;;2.97;76.90;101136.18;1350226;90;22123;-89
2021/11/23 06:47:31;;;;;;;13.90;9.50;;;;;;;2.98;77.23;101136.18;1330497;94;22210;-89
2021/11/23 06:49:59;;;;;;;13.10;8.67;;;;;;;3.04;76.97;101136.31;1347100;91;21864;-89
2021/11/23 06:52:25;;;;;;;15.77;7.27;;;;;;;3.10;74.97;101138.13;1337828;92;22090;-89
2021/11/23 06:54:53;;;;;;;13.27;7.37;;;;;;;3.10;74.97;101138.13;1347459;90;21991;-89
2021/11/23 06:57:21;;;;;;;14.37;9.17;;;;;;;3.21;74.18;101147.19;1351620;91;22086;-89
2021/11/23 06:59:47;;;;;;;12.43;7.00;;;;;;;3.27;72.97;101153.39;1349158;90;22166;-88
2021/11/23 07:02:15;;;;;;;13.13;7.87;;;;;;;3.35;71.63;101153.83;1353592;92;21943;-90
2021/11/23 07:04:41;;;;;;;10.97;6.70;;;;;;;3.43;70.70;101166.50;1352762;92;22971;-88
2021/11/23 07:07:10;;;;;;;13.27;7.23;;;;;;;3.45;70.04;101164.16;1345100;91;21969;-88
2021/11/23 07:09:37;;;;;;;11.80;7.27;;;;;;;3.52;69.42;101164.69;1344898;94;21944;-89
2021/11/23 07:12:05;;;;;;;10.73;6.33;;;;;;;3.59;68.84;101163.41;1350200;91;22204;-89
2021/11/23 07:14:31;;;;;;;12.33;6.40;;;;;;;3.65;68.31;101168.77;1348451;92;22118;-89
2021/11/23 07:16:58;;;;;;;9.17;6.57;;;;;;;3.71;68.80;101168.42;1350838;89;22043;-89
2021/11/23 07:19:25;;;;;;;11.30;7.20;;;;;;;3.73;67.93;101171.34;1345337;91;22308;-89
2021/11/23 07:21:51;;;;;;;21.37;8.60;;;;;;;3.75;67.12;101164.72;1350822;91;22015;-89
2021/11/23 07:24:19;;;;;;;15.00;6.90;;;;;;;3.82;67.21;101169.51;1349738;90;22027;-89
2021/11/23 07:26:46;;;;;;;13.27;7.30;;;;;;;3.84;66.51;101165.03;1348189;90;22040;-89
2021/11/23 07:29:12;;;;;;;10.93;6.40;;;;;;;3.84;66.51;101165.03;1352448;93;21489;-88
2021/11/23 07:31:43;;;;;;;12.03;6.93;;;;;;;3.90;65.88;101170.39;1351297;90;21977;-88
2021/11/23 07:34:11;;;;;;;12.90;7.60;;;;;;;3.90;66.03;101174.33;1350149;91;22945;-89
2021/11/23 07:36:38;;;;;;;10.47;6.70;;;;;;;3.99;66.47;101182.97;1345390;91;21282;-89
2021/11/23 07:39:08;;;;;;;12.83;5.97;;;;;;;3.97;65.56;101194.02;1352418;91;21489;-89
2021/11/23 07:41:34;;;;;;;12.10;6.80;;;;;;;3.96;64.91;101188.38;1353065;90;22206;-89
2021/11/23 07:44:02;;;;;;;9.07;6.30;;;;;;;3.96;64.91;101188.38;1345738;91;21356;-90
2021/11/23 07:46:30;;;;;;;10.20;6.13;;;;;;;4.01;65.15;101192.90;1350150;91;21525;-90
2021/11/23 07:48:57;;;;;;;9.57;5.57;;;;;;;4.02;63.85;101193.27;1352556;91;21386;-90
2021/11/23 07:51:24;;;;;;;12.27;5.87;;;;;;;4.10;63.50;101188.08;1323609;93;21388;-88
2021/11/23 07:53:51;;;;;;;7.87;6.00;;;;;;;4.21;64.28;101185.69;1349350;91;21481;-89
2021/11/23 07:56:20;;;;;;;8.63;5.87;;;;;;;4.21;64.28;101185.69;1353485;89;21312;-89
2021/11/23 07:58:49;;;;;;;9.97;5.17;;;;;;;4.29;63.77;101184.78;1350987;90;21259;-89
2021/11/23 08:01:16;;;;;;;9.63;5.93;;;;;;;4.28;62.43;101180.86;1350730;91;22345;-87
2021/11/23 08:03:42;;;;;;;9.20;5.33;;;;;;;4.36;62.60;101180.86;1347862;91;21371;-87
2021/11/23 08:06:15;;;;;;;6.63;4.47;;;;;;;4.44;61.61;101202.23;1350664;90;21282;-85
2021/11/23 08:08:43;;;;;;;6.87;4.50;;;;;;;4.50;60.86;101196.63;1348172;91;21371;-86
2021/11/23 08:11:10;;;;;;;9.60;4.47;;;;;;;4.49;59.50;101211.99;1346435;91;21253;-88
2021/11/23 08:13:37;;;;;;;5.30;3.90;;;;;;;4.63;60.66;101212.94;1347312;91;21423;-85
2021/11/23 08:16:04;;;;;;;6.00;3.67;;;;;;;4.67;58.26;101222.33;1351978;91;21481;-86
2021/11/23 08:18:33;;;;;;;7.77;4.80;;;;;;;4.65;57.61;101231.59;1344238;91;21439;-87
2021/11/23 08:21:02;;;;;;;5.80;4.20;;;;;;;4.76;58.51;101227.03;1349045;93;22110;-88
2021/11/23 08:23:32;;;;;;;5.87;4.20;;;;;;;4.80;57.64;101228.52;1343600;93;21289;-86
2021/11/23 08:25:58;;;;;;;10.32;3.98;;;;;;;4.85;57.56;101229.10;1349786;90;21371;-87
2021/11/23 08:28:27;;;;;;;6.97;3.13;;;;;;;4.85;56.70;101235.66;1347053;91;21274;-87
2021/11/23 08:30:56;;;;;;;6.20;3.17;;;;;;;4.86;55.21;101232.56;1347575;91;21415;-87
2021/11/23 08:33:23;;;;;;;8.20;3.47;;;;;;;4.86;55.72;101230.81;1348754;91;22762;-88
2021/11/23 08:35:50;;;;;;;6.60;3.47;;;;;;;4.89;55.46;101235.00;1346367;91;22080;-87
2021/11/23 08:38:19;;;;;;;4.90;3.25;;;;;;;4.95;54.78;101236.81;1327938;93;21550;-86
2021/11/23 08:40:46;;;;;;;5.17;3.40;;;;;;;5.01;53.99;101233.45;1328592;92;22347;-86
2021/11/23 08:43:13;;;;;;;5.80;3.43;;;;;;;5.07;54.64;101240.95;1326696;93;21320;-87
2021/11/23 08:45:41;;;;;;;6.60;4.13;;;;;;;5.11;53.43;101252.94;1331592;93;21454;-88
2021/11/23 08:48:17;;;;;;;6.60;3.97;;;;;;;5.21;54.15;101244.90;1341171;91;21541;-87
2021/11/23 08:50:43;;;;;;;5.33;2.90;;;;;;;5.18;53.73;101244.61;1345753;91;21363;-88
2021/11/23 08:53:10;;;;;;;7.30;4.10;;;;;;;5.22;54.31;101249.20;1338331;92;21476;-87
2021/11/23 08:55:37;;;;;;;5.83;3.80;;;;;;;5.33;55.29;101254.64;1348749;93;21296;-88
2021/11/23 08:58:07;;;;;;;7.73;4.30;;;;;;;5.39;54.00;101243.77;1328280;92;21479;-91
2021/11/23 09:59:36;;;;;;;9.53;6.50;;;;;;;8.72;41.65;101243.45;1474004;86;29517;-87
2021/11/23 10:02:03;;;;;;;6.87;4.47;;;;;;;8.66;42.31;101239.09;1450078;89;21471;-88
2021/11/23 10:04:30;;;;;;;4.93;3.63;;;;;;;8.98;43.17;101240.16;1440476;89;21730;-87
2021/11/23 10:07:09;;;;;;;5.63;4.10;;;;;;;8.68;42.38;101235.88;1458417;89;21591;-87
2021/11/23 10:09:43;;;;;;;6.40;3.57;;;;;;;8.84;42.52;101231.13;1452756;88;21584;-87
2021/11/23 10:12:24;;;;;;;5.27;3.53;;;;;;;8.68;43.35;101230.59;1449951;88;21709;-85
2021/11/23 10:15:20;;;;;;;12.67;6.70;;;;;;;8.69;42.46;101229.17;1439038;88;21625;-86
2021/11/23 10:18:08;;;;;;;13.17;4.63;;;;;;;8.76;43.45;101224.27;1443988;88;21485;-85
2021/11/23 10:20:44;;;;;;;21.37;12.10;;;;;;;8.47;44.18;101230.41;1456079;88;21565;-86
2021/11/23 10:23:31;;;;;;;11.03;6.17;;;;;;;8.61;45.22;101230.22;1482631;87;21550;-86
2021/11/23 10:26:14;;;;;;;16.77;10.37;;;;;;;8.79;44.18;101231.94;1475013;87;21579;-86
2021/11/23 10:28:45;;;;;;;12.33;5.53;;;;;;;9.26;44.94;101223.48;1475356;87;21508;-85
2021/11/23 10:31:13;;;;;;;30.17;19.02;;;;;;;9.25;42.74;101221.81;1468921;87;21392;-86
2021/11/23 10:33:42;;;;;;;7.03;5.03;;;;;;;9.37;43.62;101219.52;1474636;87;21558;-86
2021/11/23 10:36:15;;;;;;;3.87;3.23;;;;;;;8.98;43.44;101217.71;1446032;89;21587;-86
2021/11/23 10:38:43;;;;;;;6.57;4.27;;;;;;;8.44;43.89;101220.09;1441081;89;22617;-85
2021/11/23 10:41:13;;;;;;;10.53;6.50;;;;;;;8.13;44.95;101215.24;1449564;89;21529;-86
2021/11/23 10:43:41;;;;;;;;;;;;;;;8.08;45.62;101218.69;1451004;89;21509;-86
2021/11/23 10:46:22;;;;;;;10.90;6.60;;;;;;;8.48;44.75;101221.53;1443870;89;20465;-85
2021/11/23 10:48:57;;;;;;;3.92;3.37;;;;;;;8.66;45.12;101214.02;1444343;89;21508;-86
2021/11/23 10:51:27;;;;;;;6.87;5.50;;;;;;;8.58;44.48;101214.62;1450675;89;21516;-85
2021/11/23 10:54:16;;;;;;;7.13;4.60;;;;;;;8.99;45.67;101213.27;1426891;89;23333;-86
2021/11/23 10:57:04;;;;;;;9.73;5.73;;;;;;;8.97;44.54;101205.45;1448514;89;21458;-85
2021/11/23 10:59:32;;;;;;;10.23;7.40;;;;;;;9.15;43.72;101219.50;1443258;89;21672;-86
2021/11/23 11:02:01;;;;;;;25.13;16.23;;;;;;;9.52;44.08;101208.22;1432374;89;21486;-87
2021/11/23 11:04:29;;;;;;;7.87;5.23;;;;;;;9.94;44.88;101211.88;1432885;90;22430;-85
2021/11/23 11:06:57;;;;;;;11.70;6.27;;;;;;;9.90;42.83;101209.13;1443364;89;21633;-85
2021/11/23 11:09:26;;;;;;;7.23;5.23;;;;;;;9.59;41.76;101200.66;1456889;89;21776;-86
2021/11/23 11:11:53;;;;;;;9.63;6.57;;;;;;;9.80;41.98;101206.02;1433339;90;22400;-86
2021/11/23 11:14:21;;;;;;;8.47;5.07;;;;;;;9.76;42.47;101197.50;1449546;89;21472;-86
2021/11/23 11:16:48;;;;;;;5.30;4.00;;;;;;;9.87;43.73;101198.80;1436354;89;21499;-86
2021/11/23 11:19:17;;;;;;;5.73;4.00;;;;;;;10.01;43.25;101202.98;1427630;90;21514;-86
2021/11/23 11:21:55;;;;;;;8.60;5.33;;;;;;;9.98;42.16;101199.72;1432951;90;21636;-86
2021/11/23 11:24:43;;;;;;;8.03;5.87;;;;;;;10.36;42.83;101201.91;1468635;87;22810;-86
2021/11/23 11:27:37;;;;;;;6.70;4.20;;;;;;;10.33;41.66;101206.97;1457030;88;21654;-86
2021/11/23 11:30:34;;;;;;;10.27;7.03;;;;;;;9.53;41.98;101202.48;1480653;87;21462;-86
2021/11/23 11:33:11;;;;;;;15.83;10.23;;;;;;;9.57;42.56;101197.30;1478582;87;21444;-86
2021/11/23 11:35:51;;;;;;;6.43;4.87;;;;;;;10.08;42.64;101199.34;1480570;87;21467;-85
2021/11/23 11:38:32;;;;;;;5.47;4.40;;;;;;;9.46;41.33;101198.13;1484186;87;21571;-86
2021/11/23 11:41:04;;;;;;;;;;;;;;;9.42;42.26;101198.87;1472955;87;22557;-87
2021/11/23 11:43:40;;;;;;;5.20;3.80;;;;;;;8.92;42.12;101206.30;1474198;87;20223;-86
2021/11/23 11:46:11;;;;;;;7.20;5.37;;;;;;;9.14;41.90;101202.83;1473645;87;21542;-87
2021/11/23 11:48:43;;;;;;;7.15;3.83;;;;;;;9.56;42.93;101199.09;1499002;86;21597;-87
2021/11/23 11:51:29;;;;;;;7.70;4.90;;;;;;;9.29;43.11;101206.06;1491313;86;21622;-86
2021/11/23 11:54:03;;;;;;;6.47;4.13;;;;;;;9.53;43.26;101198.51;1493510;86;21493;-86
2021/11/23 11:56:41;;;;;;;7.80;3.70;;;;;;;9.84;42.10;101200.38;1451110;88;21469;-86
2021/11/23 11:59:24;;;;;;;7.37;4.90;;;;;;;9.99;41.67;101198.78;1488624;86;21684;-86
2021/11/23 12:01:55;;;;;;;5.57;4.50;;;;;;;9.98;41.95;101196.59;1472555;85;21676;-87
2021/11/23 12:04:26;;;;;;;4.87;3.67;;;;;;;10.22;41.34;101199.54;1463012;88;21658;-89
2021/11/23 12:07:11;;;;;;;;;;;;;;;10.28;44.41;101195.09;1471812;88;21397;-88
2021/11/23 12:09:51;;;;;;;6.80;4.43;;;;;;;10.71;44.29;101193.66;1469848;88;20751;-88
2021/11/23 12:12:37;;;;;;;4.87;3.98;;;;;;;10.96;40.75;101182.28;1464860;88;21552;-88
2021/11/23 12:15:19;;;;;;;8.60;4.67;;;;;;;11.05;41.14;101181.52;1447818;89;21713;-89
2021/11/23 12:18:03;;;;;;;5.90;3.80;;;;;;;10.94;40.83;101184.25;1469270;88;21559;-87
2021/11/23 12:21:06;;;;;;;5.50;3.67;;;;;;;10.47;40.37;101184.66;1464929;88;21397;-87
2021/11/23 12:23:56;;;;;;;6.00;4.03;;;;;;;10.56;40.28;101181.73;1462821;88;21434;-88
2021/11/23 12:55:31;;;;;;;4.53;2.95;;;;;;;13.86;33.38;101179.59;1475288;86;29693;31
2021/11/23 12:58:04;;;;;;;;;;;;;;;13.37;33.84;101185.69;1389014;87;21704;31
2021/11/23 13:00:38;;;;;;;8.05;4.05;;;;;;;12.68;34.45;101190.84;1363803;88;20427;31
2021/11/23 13:05:35;;;;;;;6.90;5.20;;;;;;;12.78;38.30;101194.33;1369250;87;21720;-89
2021/11/23 13:08:16;;;;;;;9.78;6.37;;;;;;;12.78;36.76;101196.98;1375926;92;22272;-94
2021/11/23 13:10:46;;;;;;;9.48;6.35;;;;;;;12.24;35.61;101197.11;1400805;92;21508;-95